createdAt,value
2017-09-15T00:00:32.115Z,11.80
2017-09-15T00:02:59.690Z,11.80
2017-09-15T00:05:28.222Z,11.80
2017-09-15T00:07:57.028Z,11.80
2017-09-15T00:10:25.502Z,11.80
2017-09-15T00:12:53.155Z,11.80
2017-09-15T00:15:20.856Z,11.90
2017-09-15T00:17:48.500Z,11.90
2017-09-15T00:20:16.094Z,11.90
2017-09-15T00:22:43.724Z,12.00
2017-09-15T00:25:11.313Z,12.00
2017-09-15T00:27:38.918Z,11.90
2017-09-15T00:30:07.281Z,11.80
2017-09-15T00:32:34.901Z,11.80
2017-09-15T00:35:02.552Z,11.70
2017-09-15T00:37:30.188Z,11.60
2017-09-15T00:39:57.956Z,11.80
2017-09-15T00:42:26.609Z,11.70
2017-09-15T00:44:54.174Z,11.70
2017-09-15T00:47:21.744Z,11.70
2017-09-15T00:49:50.145Z,11.80
2017-09-15T00:52:17.739Z,11.80
2017-09-15T00:54:45.411Z,11.70
2017-09-15T00:57:12.967Z,11.60
2017-09-15T00:59:40.526Z,11.60
2017-09-15T01:02:08.135Z,11.60
2017-09-15T01:04:36.031Z,11.50
2017-09-15T01:07:03.592Z,11.50
2017-09-15T01:09:31.236Z,11.60
2017-09-15T01:11:58.890Z,11.50
2017-09-15T01:14:26.596Z,11.50
2017-09-15T01:16:55.581Z,11.40
2017-09-15T01:19:24.205Z,11.40
2017-09-15T01:21:52.126Z,11.40
2017-09-15T01:24:19.837Z,11.50
2017-09-15T01:26:47.428Z,11.50
2017-09-15T01:29:15.727Z,11.40
2017-09-15T01:31:43.283Z,11.40
2017-09-15T01:34:10.807Z,11.40
2017-09-15T01:36:38.363Z,11.30
2017-09-15T01:39:05.889Z,11.40
2017-09-15T01:41:33.479Z,11.30
2017-09-15T01:44:01.102Z,11.30
2017-09-15T01:46:28.743Z,11.40
2017-09-15T01:48:56.422Z,11.40
2017-09-15T01:51:24.102Z,11.30
2017-09-15T01:53:51.778Z,11.40
2017-09-15T01:56:19.375Z,11.30
2017-09-15T01:58:47.687Z,11.30
2017-09-15T02:01:15.247Z,11.30
2017-09-15T02:03:42.780Z,11.20
2017-09-15T02:06:10.339Z,11.20
2017-09-15T02:08:37.872Z,11.20
2017-09-15T02:11:05.431Z,11.20
2017-09-15T02:13:33.000Z,11.20
2017-09-15T02:16:00.713Z,11.20
2017-09-15T02:18:28.318Z,11.20
2017-09-15T02:20:56.819Z,11.20
2017-09-15T02:23:24.590Z,11.20
2017-09-15T02:25:52.377Z,11.10
2017-09-15T02:28:20.963Z,11.00
2017-09-15T02:30:48.655Z,10.90
2017-09-15T02:33:16.197Z,11.10
2017-09-15T02:35:43.771Z,11.10
2017-09-15T02:38:11.325Z,11.00
2017-09-15T02:40:38.900Z,11.00
2017-09-15T02:43:06.430Z,10.90
2017-09-15T02:45:34.791Z,10.90
2017-09-15T02:48:03.180Z,10.90
2017-09-15T02:50:30.828Z,10.80
2017-09-15T02:52:58.429Z,10.90
2017-09-15T02:55:26.927Z,10.80
2017-09-15T02:57:54.691Z,10.80
2017-09-15T03:00:22.852Z,10.80
2017-09-15T03:02:50.701Z,10.80
2017-09-15T03:05:18.357Z,10.90
2017-09-15T03:07:45.882Z,10.90
2017-09-15T03:10:14.207Z,10.90
2017-09-15T03:12:41.757Z,10.90
2017-09-15T03:15:09.339Z,10.90
2017-09-15T03:17:36.867Z,10.80
2017-09-15T03:20:05.213Z,11.00
2017-09-15T03:22:32.937Z,11.00
2017-09-15T03:25:00.566Z,10.90
2017-09-15T03:27:28.301Z,10.90
2017-09-15T03:29:56.168Z,11.00
2017-09-15T03:32:24.106Z,10.80
2017-09-15T03:34:52.351Z,10.90
2017-09-15T03:37:20.830Z,10.90
2017-09-15T03:39:48.483Z,10.90
2017-09-15T03:42:16.040Z,10.80
2017-09-15T03:44:43.642Z,10.80
2017-09-15T03:47:11.960Z,10.80
2017-09-15T03:49:39.536Z,10.80
2017-09-15T03:52:07.055Z,10.80
2017-09-15T03:54:34.673Z,10.70
2017-09-15T03:57:02.222Z,10.80
2017-09-15T03:59:29.856Z,10.80
2017-09-15T04:01:57.552Z,10.70
2017-09-15T04:04:25.240Z,10.70
2017-09-15T04:06:52.912Z,10.70
2017-09-15T04:09:20.652Z,10.70
2017-09-15T04:11:48.326Z,10.80
2017-09-15T04:14:15.912Z,10.80
2017-09-15T04:16:43.439Z,10.70
2017-09-15T04:19:11.775Z,10.60
2017-09-15T04:21:39.325Z,10.50
2017-09-15T04:24:06.882Z,10.60
2017-09-15T04:26:34.436Z,10.70
2017-09-15T04:29:02.011Z,10.60
2017-09-15T04:31:30.307Z,10.60
2017-09-15T04:33:57.852Z,10.50
2017-09-15T04:36:25.446Z,10.50
2017-09-15T04:38:53.763Z,10.50
2017-09-15T04:41:21.537Z,10.50
2017-09-15T04:43:52.104Z,10.50
2017-09-15T04:46:19.642Z,10.50
2017-09-15T04:48:47.984Z,10.50
2017-09-15T04:51:15.532Z,10.50
2017-09-15T04:53:43.063Z,10.50
2017-09-15T04:56:10.638Z,10.50
2017-09-15T04:58:38.932Z,10.40
2017-09-15T05:01:06.500Z,10.40
2017-09-15T05:03:34.097Z,10.20
2017-09-15T05:06:02.424Z,10.00
2017-09-15T05:08:29.972Z,10.00
2017-09-15T05:10:57.597Z,10.10
2017-09-15T05:13:25.136Z,9.90
2017-09-15T05:15:52.736Z,9.90
2017-09-15T05:18:21.040Z,9.90
2017-09-15T05:20:48.563Z,9.90
2017-09-15T05:23:16.128Z,10.00
2017-09-15T05:25:43.691Z,9.90
2017-09-15T05:28:11.231Z,9.80
2017-09-15T05:30:38.823Z,9.80
2017-09-15T05:33:06.391Z,9.70
2017-09-15T05:35:33.919Z,9.70
2017-09-15T05:38:02.247Z,9.70
2017-09-15T05:40:29.875Z,9.70
2017-09-15T05:42:57.432Z,9.80
2017-09-15T05:45:25.010Z,9.90
2017-09-15T05:47:53.355Z,9.80
2017-09-15T05:50:21.741Z,9.70
2017-09-15T05:52:50.079Z,9.70
2017-09-15T05:55:17.603Z,9.70
2017-09-15T05:57:45.170Z,9.80
2017-09-15T06:00:12.705Z,9.70
2017-09-15T06:02:40.264Z,9.70
2017-09-15T06:05:07.791Z,9.60
2017-09-15T06:07:35.344Z,9.70
2017-09-15T06:10:02.863Z,9.70
2017-09-15T06:12:30.497Z,9.70
2017-09-15T06:14:58.032Z,9.70
2017-09-15T06:17:25.646Z,9.70
2017-09-15T06:19:54.011Z,9.70
2017-09-15T06:22:21.734Z,9.70
2017-09-15T06:24:50.112Z,9.80
2017-09-15T06:27:17.680Z,9.80
2017-09-15T06:29:45.967Z,9.80
2017-09-15T06:32:13.531Z,9.80
2017-09-15T06:34:41.076Z,9.90
2017-09-15T06:37:08.678Z,10.00
2017-09-15T06:39:36.997Z,10.30
2017-09-15T06:42:04.563Z,10.30
2017-09-15T06:44:32.228Z,10.40
2017-09-15T06:47:00.601Z,10.60
2017-09-15T06:49:28.976Z,10.80
2017-09-15T06:51:56.573Z,10.70
2017-09-15T06:54:24.303Z,10.90
2017-09-15T06:56:51.955Z,11.00
2017-09-15T06:59:19.532Z,11.10
2017-09-15T07:01:47.979Z,11.30
2017-09-15T07:04:16.285Z,11.30
2017-09-15T07:06:44.626Z,11.40
2017-09-15T07:09:12.212Z,11.40
2017-09-15T07:11:39.735Z,11.50
2017-09-15T07:14:08.354Z,11.70
2017-09-15T07:16:35.889Z,11.70
2017-09-15T07:19:03.415Z,11.90
2017-09-15T07:21:30.967Z,12.00
2017-09-15T07:23:58.503Z,12.10
2017-09-15T07:26:26.106Z,12.20
2017-09-15T07:28:53.650Z,12.30
2017-09-15T07:31:21.228Z,12.40
2017-09-15T07:33:48.769Z,12.50
2017-09-15T07:36:17.108Z,12.90
2017-09-15T07:38:44.655Z,12.90
2017-09-15T07:41:12.216Z,13.10
2017-09-15T07:43:40.511Z,13.50
2017-09-15T07:46:08.283Z,13.50
2017-09-15T07:48:35.811Z,13.60
2017-09-15T07:51:03.335Z,13.70
2017-09-15T07:53:30.894Z,13.80
2017-09-15T07:55:58.453Z,13.80
2017-09-15T07:58:26.036Z,13.90
2017-09-15T08:00:53.607Z,14.00
2017-09-15T08:03:21.171Z,14.10
2017-09-15T08:05:48.716Z,14.20
2017-09-15T08:08:17.038Z,14.30
2017-09-15T08:10:44.563Z,14.30
2017-09-15T08:13:12.447Z,14.30
2017-09-15T08:15:40.008Z,14.40
2017-09-15T08:18:07.746Z,14.50
2017-09-15T08:20:36.105Z,14.60
2017-09-15T08:23:04.406Z,14.60
2017-09-15T08:25:31.967Z,14.50
2017-09-15T08:27:59.522Z,14.60
2017-09-15T08:30:27.117Z,14.70
2017-09-15T08:32:55.433Z,15.10
2017-09-15T08:35:23.003Z,15.00
2017-09-15T08:37:50.535Z,15.10
2017-09-15T08:40:18.109Z,15.10
2017-09-15T08:42:46.399Z,15.20
2017-09-15T08:45:13.982Z,15.20
2017-09-15T08:47:41.625Z,15.30
2017-09-15T08:50:09.950Z,15.30
2017-09-15T08:52:37.474Z,15.30
2017-09-15T08:55:05.827Z,15.50
2017-09-15T08:57:33.363Z,15.50
2017-09-15T09:00:00.897Z,15.60
2017-09-15T09:02:28.689Z,15.60
2017-09-15T09:04:56.275Z,15.70
2017-09-15T09:07:23.897Z,15.70
2017-09-15T09:09:51.435Z,15.80
2017-09-15T09:12:19.000Z,15.90
2017-09-15T09:14:46.528Z,16.00
2017-09-15T09:17:14.087Z,16.10
2017-09-15T09:19:41.610Z,16.20
2017-09-15T09:22:09.172Z,16.30
2017-09-15T09:24:36.699Z,16.30
2017-09-15T09:27:04.287Z,16.40
2017-09-15T09:29:31.855Z,16.40
2017-09-15T09:31:59.457Z,16.30
2017-09-15T09:34:27.007Z,16.30
2017-09-15T09:36:54.572Z,16.40
2017-09-15T09:39:22.099Z,16.40
2017-09-15T09:41:49.701Z,16.50
2017-09-15T09:44:17.995Z,16.70
2017-09-15T09:46:45.589Z,16.70
2017-09-15T09:49:13.163Z,16.90
2017-09-15T09:51:41.492Z,17.10
2017-09-15T09:54:09.020Z,17.10
2017-09-15T09:56:36.629Z,17.30
2017-09-15T09:59:05.027Z,17.50
2017-09-15T10:01:32.600Z,17.40
2017-09-15T10:04:00.194Z,17.50
2017-09-15T10:06:27.855Z,17.50
2017-09-15T10:08:55.403Z,17.40
2017-09-15T10:11:23.012Z,17.40
2017-09-15T10:13:50.584Z,17.40
2017-09-15T10:16:18.127Z,17.40
2017-09-15T10:18:45.760Z,17.30
2017-09-15T10:21:13.443Z,17.30
2017-09-15T10:23:41.011Z,17.40
2017-09-15T10:26:08.557Z,17.40
2017-09-15T10:28:36.139Z,17.40
2017-09-15T10:31:03.765Z,17.30
2017-09-15T10:33:32.143Z,17.20
2017-09-15T10:35:59.849Z,17.20
2017-09-15T10:38:27.552Z,17.30
2017-09-15T10:40:55.259Z,17.30
2017-09-15T10:43:22.933Z,17.20
2017-09-15T10:45:50.475Z,17.20
2017-09-15T10:48:18.799Z,17.30
2017-09-15T10:50:46.324Z,17.30
2017-09-15T10:53:13.926Z,17.30
2017-09-15T10:55:42.233Z,17.20
2017-09-15T10:58:15.606Z,17.20
2017-09-15T11:00:43.133Z,17.30
2017-09-15T11:03:10.706Z,17.20
2017-09-15T11:05:38.244Z,17.20
2017-09-15T11:08:05.875Z,17.40
2017-09-15T11:10:33.430Z,17.50
2017-09-15T11:13:01.096Z,17.60
2017-09-15T11:15:28.740Z,17.60
2017-09-15T11:17:56.343Z,17.70
2017-09-15T11:20:23.904Z,17.60
2017-09-15T11:22:51.482Z,17.60
2017-09-15T11:25:19.031Z,17.60
2017-09-15T11:27:46.592Z,17.70
2017-09-15T11:30:14.163Z,17.60
2017-09-15T11:32:42.451Z,17.70
2017-09-15T11:35:10.015Z,17.70
2017-09-15T11:37:37.579Z,17.90
2017-09-15T11:40:05.156Z,17.90
2017-09-15T11:42:33.700Z,18.10
2017-09-15T11:45:02.142Z,18.20
2017-09-15T11:47:29.696Z,18.20
2017-09-15T11:49:57.335Z,18.20
2017-09-15T11:52:24.871Z,18.20
2017-09-15T11:54:52.452Z,18.30
2017-09-15T11:57:19.979Z,18.40
2017-09-15T11:59:48.323Z,18.20
2017-09-15T12:02:15.882Z,18.20
2017-09-15T12:04:43.455Z,18.30
2017-09-15T12:07:10.987Z,18.30
2017-09-15T12:09:38.543Z,18.40
2017-09-15T12:12:06.079Z,18.60
2017-09-15T12:14:33.667Z,18.70
2017-09-15T12:17:01.212Z,18.70
2017-09-15T12:19:28.787Z,18.80
2017-09-15T12:21:56.315Z,18.80
2017-09-15T12:24:23.883Z,18.90
2017-09-15T12:26:51.422Z,19.00
2017-09-15T12:29:18.995Z,19.10
2017-09-15T12:31:46.534Z,19.10
2017-09-15T12:34:14.100Z,19.10
2017-09-15T12:36:41.633Z,19.20
2017-09-15T12:39:09.980Z,19.00
2017-09-15T12:41:37.512Z,19.00
2017-09-15T12:44:05.050Z,19.00
2017-09-15T12:46:32.652Z,19.10
2017-09-15T12:49:00.215Z,19.20
2017-09-15T12:51:27.804Z,19.40
2017-09-15T12:53:55.370Z,19.50
2017-09-15T12:56:22.950Z,19.40
2017-09-15T12:58:50.546Z,19.50
2017-09-15T13:01:18.880Z,19.60
2017-09-15T13:03:46.437Z,19.60
2017-09-15T13:06:14.003Z,19.70
2017-09-15T13:08:42.304Z,20.00
2017-09-15T13:11:10.661Z,19.80
2017-09-15T13:13:38.988Z,19.70
2017-09-15T13:16:06.576Z,19.60
2017-09-15T13:18:34.921Z,19.50
2017-09-15T13:21:02.526Z,19.50
2017-09-15T13:23:30.101Z,19.20
2017-09-15T13:25:57.644Z,19.10
2017-09-15T13:28:25.226Z,18.90
2017-09-15T13:30:53.548Z,18.50
2017-09-15T13:33:21.142Z,18.50
2017-09-15T13:35:48.687Z,18.40
2017-09-15T13:38:16.263Z,18.20
2017-09-15T13:40:43.795Z,18.20
2017-09-15T13:43:11.469Z,18.40
2017-09-15T13:45:39.008Z,18.30
2017-09-15T13:48:06.579Z,18.40
2017-09-15T13:50:34.117Z,18.40
2017-09-15T13:53:02.154Z,18.50
2017-09-15T13:55:29.704Z,18.70
2017-09-15T13:57:57.272Z,18.80
2017-09-15T14:00:24.806Z,18.80
2017-09-15T14:02:52.381Z,18.70
2017-09-15T14:05:19.938Z,18.50
2017-09-15T14:07:47.476Z,18.40
2017-09-15T14:10:15.803Z,18.70
2017-09-15T14:12:43.334Z,18.70
2017-09-15T14:15:10.924Z,18.90
2017-09-15T14:17:39.221Z,19.20
2017-09-15T14:20:06.801Z,19.10
2017-09-15T14:22:34.349Z,19.20
2017-09-15T14:25:02.812Z,19.60
2017-09-15T14:27:30.415Z,19.60
2017-09-15T14:29:58.003Z,19.70
2017-09-15T14:32:25.602Z,19.40
2017-09-15T14:34:54.163Z,19.10
2017-09-15T14:37:21.740Z,18.80
2017-09-15T14:39:49.407Z,19.00
2017-09-15T14:42:16.978Z,19.90
2017-09-15T14:44:44.535Z,21.00
2017-09-15T14:47:12.836Z,23.00
2017-09-15T14:49:40.397Z,23.00
2017-09-15T14:52:07.968Z,23.80
2017-09-15T14:54:35.569Z,23.80
2017-09-15T14:57:03.125Z,23.30
2017-09-15T14:59:30.719Z,22.60
2017-09-15T15:01:59.024Z,21.30
2017-09-15T15:04:26.690Z,21.20
2017-09-15T15:06:54.228Z,20.60
2017-09-15T15:09:21.791Z,20.00
2017-09-15T15:11:49.330Z,19.40
2017-09-15T15:14:16.865Z,18.90
2017-09-15T15:16:44.429Z,18.60
2017-09-15T15:19:11.975Z,18.30
2017-09-15T15:21:39.544Z,18.00
2017-09-15T15:24:07.974Z,17.30
2017-09-15T15:26:35.543Z,17.30
2017-09-15T15:29:03.104Z,17.00
2017-09-15T15:31:31.444Z,16.70
2017-09-15T15:33:58.989Z,16.60
2017-09-15T15:36:26.572Z,16.50
2017-09-15T15:38:54.873Z,16.50
2017-09-15T15:41:22.429Z,16.50
2017-09-15T15:43:49.978Z,16.50
2017-09-15T15:46:17.537Z,16.40
2017-09-15T15:48:45.069Z,16.30
2017-09-15T15:51:12.664Z,16.20
2017-09-15T15:53:40.285Z,16.10
2017-09-15T15:56:07.810Z,16.00
2017-09-15T15:58:35.385Z,15.90
2017-09-15T16:01:03.806Z,15.50
2017-09-15T16:03:31.423Z,15.50
2017-09-15T16:05:59.028Z,15.40
2017-09-15T16:08:26.602Z,15.30
2017-09-15T16:10:54.148Z,15.20
2017-09-15T16:13:21.718Z,15.10
2017-09-15T16:15:49.264Z,15.00
2017-09-15T16:18:16.848Z,15.00
2017-09-15T16:20:44.383Z,14.90
2017-09-15T16:23:11.943Z,14.90
2017-09-15T16:25:39.472Z,14.80
2017-09-15T16:28:07.076Z,14.70
2017-09-15T16:30:34.628Z,14.60
2017-09-15T16:33:02.171Z,14.50
2017-09-15T16:35:29.791Z,14.60
2017-09-15T16:38:03.063Z,14.50
2017-09-15T16:40:36.231Z,14.60
2017-09-15T16:43:10.287Z,14.50
2017-09-15T16:45:43.618Z,14.50
2017-09-15T16:48:17.526Z,14.50
2017-09-15T16:50:45.100Z,14.50
2017-09-15T16:53:12.673Z,14.50
2017-09-15T16:55:40.281Z,14.50
2017-09-15T16:58:07.820Z,14.50
2017-09-15T17:00:35.435Z,14.60
2017-09-15T17:03:03.064Z,14.70
2017-09-15T17:05:30.669Z,14.60
2017-09-15T17:07:58.274Z,14.60
2017-09-15T17:10:26.615Z,14.50
2017-09-15T17:12:54.247Z,14.50
2017-09-15T17:15:21.832Z,14.60
2017-09-15T17:17:50.166Z,14.40
2017-09-15T17:20:17.723Z,14.30
2017-09-15T17:22:45.249Z,14.30
2017-09-15T17:25:12.807Z,14.10
2017-09-15T17:27:40.335Z,14.30
2017-09-15T17:30:07.952Z,14.30
2017-09-15T17:32:35.620Z,14.30
2017-09-15T17:35:03.386Z,14.10
2017-09-15T17:37:31.016Z,14.20
2017-09-15T17:39:58.665Z,14.00
2017-09-15T17:42:26.208Z,13.90
2017-09-15T17:44:53.787Z,13.90
2017-09-15T17:47:21.320Z,13.90
2017-09-15T17:49:48.894Z,13.80
2017-09-15T17:52:17.194Z,13.60
2017-09-15T17:54:44.762Z,13.60
2017-09-15T17:57:12.284Z,13.60
2017-09-15T17:59:39.843Z,13.60
2017-09-15T18:02:07.463Z,13.60
2017-09-15T18:04:35.005Z,13.50
2017-09-15T18:07:02.730Z,13.40
2017-09-15T18:09:31.265Z,13.30
2017-09-15T18:11:58.912Z,13.30
2017-09-15T18:14:26.464Z,13.40
2017-09-15T18:16:54.061Z,13.20
2017-09-15T18:19:21.614Z,13.00
2017-09-15T18:21:49.179Z,12.90
2017-09-15T18:24:16.702Z,12.90
2017-09-15T18:26:44.259Z,12.90
2017-09-15T18:29:11.894Z,12.90
2017-09-15T18:31:39.486Z,13.00
2017-09-15T18:34:07.055Z,12.90
2017-09-15T18:36:34.657Z,12.70
2017-09-15T18:39:02.300Z,12.50
2017-09-15T18:41:29.916Z,12.60
2017-09-15T18:43:57.518Z,12.50
2017-09-15T18:46:25.150Z,12.50
2017-09-15T18:48:52.699Z,12.40
2017-09-15T18:51:21.027Z,12.10
2017-09-15T18:53:48.588Z,12.10
2017-09-15T18:56:16.136Z,12.00
2017-09-15T18:58:43.700Z,11.90
2017-09-15T19:01:11.232Z,11.90
2017-09-15T19:03:38.801Z,12.00
2017-09-15T19:06:06.425Z,11.90
2017-09-15T19:08:34.104Z,11.90
2017-09-15T19:11:02.454Z,11.70
2017-09-15T19:13:30.143Z,11.70
2017-09-15T19:15:57.744Z,11.70
2017-09-15T19:18:25.371Z,11.70
2017-09-15T19:20:52.982Z,11.60
2017-09-15T19:23:20.548Z,11.60
2017-09-15T19:25:48.078Z,11.60
2017-09-15T19:28:15.644Z,11.60
2017-09-15T19:30:43.172Z,11.60
2017-09-15T19:33:10.780Z,11.50
2017-09-15T19:35:38.339Z,11.50
2017-09-15T19:38:06.805Z,11.50
2017-09-15T19:40:34.457Z,11.50
2017-09-15T19:43:02.668Z,11.30
2017-09-15T19:45:30.289Z,11.40
2017-09-15T19:47:58.075Z,11.30
2017-09-15T19:50:25.676Z,11.30
2017-09-15T19:52:53.358Z,11.10
2017-09-15T19:55:20.971Z,11.10
2017-09-15T19:57:48.531Z,11.10
2017-09-15T20:00:16.133Z,11.00
2017-09-15T20:02:44.519Z,11.00
2017-09-15T20:05:12.093Z,11.00
2017-09-15T20:07:39.634Z,10.90
2017-09-15T20:10:07.658Z,10.80
2017-09-15T20:12:35.254Z,10.70
2017-09-15T20:15:02.899Z,10.60
2017-09-15T20:17:30.613Z,10.60
2017-09-15T20:19:58.324Z,10.60
2017-09-15T20:22:26.649Z,10.50
2017-09-15T20:24:54.272Z,10.50
2017-09-15T20:27:21.803Z,10.60
2017-09-15T20:29:49.377Z,10.60
2017-09-15T20:32:16.895Z,10.60
2017-09-15T20:34:46.024Z,10.60
2017-09-15T20:37:13.551Z,10.60
2017-09-15T20:39:41.120Z,10.60
2017-09-15T20:42:08.656Z,10.50
2017-09-15T20:44:36.293Z,10.50
2017-09-15T20:47:03.936Z,10.50
2017-09-15T20:49:31.740Z,10.40
2017-09-15T20:51:59.456Z,10.40
2017-09-15T20:54:27.092Z,10.30
2017-09-15T20:56:54.730Z,10.40
2017-09-15T20:59:22.278Z,10.30
2017-09-15T21:01:49.909Z,10.20
2017-09-15T21:04:17.431Z,10.20
2017-09-15T21:06:45.805Z,10.00
2017-09-15T21:09:13.386Z,10.00
2017-09-15T21:11:41.769Z,9.90
2017-09-15T21:14:09.297Z,9.90
2017-09-15T21:16:36.900Z,9.90
2017-09-15T21:19:05.156Z,9.90
2017-09-15T21:21:32.807Z,9.90
2017-09-15T21:24:00.373Z,9.80
2017-09-15T21:26:28.022Z,10.00
2017-09-15T21:28:55.601Z,9.90
2017-09-15T21:31:23.327Z,9.90
2017-09-15T21:33:50.873Z,9.80
2017-09-15T21:36:18.427Z,9.80
2017-09-15T21:38:45.950Z,9.70
2017-09-15T21:41:13.512Z,9.70
2017-09-15T21:43:41.035Z,9.70
2017-09-15T21:46:08.628Z,9.60
2017-09-15T21:48:36.223Z,9.60
2017-09-15T21:51:03.820Z,9.50
2017-09-15T21:53:31.485Z,9.50
2017-09-15T21:55:59.313Z,9.50
2017-09-15T21:58:27.159Z,9.50
2017-09-15T22:00:55.527Z,9.60
2017-09-15T22:03:23.084Z,9.60
2017-09-15T22:05:50.646Z,9.60
2017-09-15T22:08:18.968Z,9.60
2017-09-15T22:10:46.723Z,9.60
2017-09-15T22:13:15.007Z,9.70
2017-09-15T22:15:42.587Z,9.60
2017-09-15T22:18:10.107Z,9.50
2017-09-15T22:20:38.530Z,9.40
2017-09-15T22:23:06.919Z,9.40
2017-09-15T22:25:34.534Z,9.40
2017-09-15T22:28:02.125Z,9.40
2017-09-15T22:30:30.624Z,9.40
2017-09-15T22:32:58.238Z,9.40
2017-09-15T22:35:26.004Z,9.40
2017-09-15T22:37:54.351Z,9.30
2017-09-15T22:40:22.747Z,9.20
2017-09-15T22:42:50.307Z,9.20
2017-09-15T22:45:17.876Z,9.20
2017-09-15T22:47:45.467Z,9.20
2017-09-15T22:50:13.788Z,9.30
2017-09-15T22:52:41.313Z,9.30
2017-09-15T22:55:08.884Z,9.20
2017-09-15T22:57:36.609Z,9.30
2017-09-15T23:00:04.215Z,9.20
2017-09-15T23:02:32.726Z,9.20
2017-09-15T23:05:00.362Z,9.20
2017-09-15T23:07:28.449Z,9.20
2017-09-15T23:09:57.211Z,9.30
2017-09-15T23:12:24.812Z,9.20
2017-09-15T23:14:52.356Z,9.30
2017-09-15T23:17:19.929Z,9.10
2017-09-15T23:19:47.506Z,9.10
2017-09-15T23:22:15.100Z,9.10
2017-09-15T23:24:42.631Z,9.00
2017-09-15T23:27:10.955Z,9.10
2017-09-15T23:29:38.520Z,9.10
2017-09-15T23:32:06.219Z,9.00
2017-09-15T23:34:33.817Z,8.90
2017-09-15T23:37:02.308Z,8.90
2017-09-15T23:39:30.097Z,8.90
2017-09-15T23:41:58.596Z,8.90
2017-09-15T23:44:26.375Z,8.90
2017-09-15T23:46:54.712Z,8.70
2017-09-15T23:49:23.067Z,8.60
2017-09-15T23:51:50.630Z,8.60
2017-09-15T23:54:18.183Z,8.50
2017-09-15T23:56:46.471Z,8.40
2017-09-15T23:59:14.026Z,8.40
